Hovedside
METAR-TAF:

METAR-TAF

Lufthavner :

Svalbard lufthavn. Longyear

Longyearbyen, Norge

breddegrad: 78-15N, lengdegrad: 015-28E, høyde over havet: 2 m

Gjeldene værobservasjon

Denne rapporten ble laget for 1 time og 59 minutter siden, klokken 02:50 UTC
Vind 15 kt fra Øst
Temperatur 4°C
Luftfuktighet 81%
Trykk 978 hPa
Sikt 10 km eller mer
Få skyer i en høyde av 2000 ft
Brutte skyer i en høyde av 3100 ft

METAR: ENSB 220250Z 10015KT 9999 FEW020 BKN031 04/01 Q0978 RMK WIND 1400FT 09021G31KT

Tid: 06:49 (04:49 UTC)

Varsel

Varsel gyldig fra 22. klokken 00 UTC til 22. klokken 24 UTC
Vind 18 kt fra Øst
Sikt 10 km eller mer
Få skyer i en høyde av 1500 ft
Brutte skyer i en høyde av 3000 ft
lett regn
Midlertidig
fra 22. klokken 06 UTC til 22. klokken 14 UTC
Vind 22 kt fra Øst-sørøst med vindkast opp mot 38 kt

TAF: ENSB 2200/2224 10018KT 9999 -RA FEW015 BKN030 TEMPO 2206/2214 12022G38KT

Værobservasjoner og værvarsel for over 4000 flyplasser (METAR- og TAF-rapporter).

Tilgjengelige stasjoner er representert av de røde og gule prikkene på kartet.

Hold musepekeren over prikken for å se navnet på stasjonen.

Klikk så for å se værobservasjoner og -varsler.

For å forandre kartet kan du klikke på den grønne knappen med svart kryss for å zoome inn, på den grønne knappen med strek for å zoome ut, eller på de grønne pilene for å se tilstøtende kart.


METAR-TAF: